Hovedside
METAR-TAF:

METAR-TAF

Lufthavner :

Kuwait, Kuwait

breddegrad: 29-13N, lengdegrad: 047-59E, høyde over havet: 55 m

Gjeldene værobservasjon

Denne rapporten ble laget for 49 minutter siden, klokken 17:00 UTC
Vind 14 kt fra Nord-nordvest
Temperatur 38°C
Luftfuktighet 14%
Trykk 1001 hPa
Sikt: 6000 m
Skyfri himmel

METAR: OKBK 231700Z 33014KT 6000 SKC 38/06 Q1001 NOSIG

Tid: 20:49 (17:49 UTC)

Varsel

Denne rapporten ble laget for 1 time og 4 minutter siden, klokken 16:45 UTC
Varsel gyldig fra 23. klokken 18 UTC til 24. klokken 24 UTC
Vind 12 kt fra Vest-nordvest med vindkast opp mot 25 kt
Sikt: 6000 m
Skyfri himmel
Midlertidig
fra 23. klokken 18 UTC til 24. klokken 03 UTC
Sikt: 1200 m
støvdrev

TAF: OKBK 231645Z 2318/2424 30012G25KT 6000 SKC TEMPO 2318/2403 1200 BLDU

Værobservasjoner og værvarsel for over 4000 flyplasser (METAR- og TAF-rapporter).

Tilgjengelige stasjoner er representert av de røde og gule prikkene på kartet.

Hold musepekeren over prikken for å se navnet på stasjonen.

Klikk så for å se værobservasjoner og -varsler.

For å forandre kartet kan du klikke på den grønne knappen med svart kryss for å zoome inn, på den grønne knappen med strek for å zoome ut, eller på de grønne pilene for å se tilstøtende kart.


METAR-TAF: